Omaha, Nebraska
Current Conditions -  °F | °C
As of 6:52 AM on Thursday 27 Nov 2014 (Local Time) from KOMA Reporting Station
Scattered Clouds Scattered Clouds  
Wind Chill:   Ceiling: Unl
Heat Index: 16°   Visibility: 10mi
Dew Point: 11°   Wind: 8mph
Humidity: 81%   Direction: 350°N
Pressure: 30.52"   Gusts: NA
Location:  41.26°N, 95.94°W
Report Text: KOMA 271252Z 35007KT 10SM SCT013 SCT048 SCT095 M09/M12 A3052 RMK AO2 SLP350 T10891117
Loading
Personal Weather Stations






























Interactive Weather Map New forecast layout! Learn more

10-Day Weather Forecast

Advertisements
Track Severe Weather on mobile